sensor_id;sensor_type;location;lat;lon;timestamp;P1;durP1;ratioP1;P2;durP2;ratioP2
11024;SDS011;22890;51.820;8.682;2023-08-06T00:01:15;3.17;;;2.83;;
11024;SDS011;22890;51.820;8.682;2023-08-06T00:03:41;5.07;;;2.60;;
11024;SDS011;22890;51.820;8.682;2023-08-06T00:06:08;3.60;;;2.30;;
11024;SDS011;22890;51.820;8.682;2023-08-06T00:08:35;5.43;;;2.67;;
11024;SDS011;22890;51.820;8.682;2023-08-06T00:11:01;5.17;;;2.53;;
11024;SDS011;22890;51.820;8.682;2023-08-06T00:13:28;4.20;;;3.27;;
11024;SDS011;22890;51.820;8.682;2023-08-06T00:15:55;2.17;;;1.97;;
11024;SDS011;22890;51.820;8.682;2023-08-06T00:18:22;4.60;;;2.70;;
11024;SDS011;22890;51.820;8.682;2023-08-06T00:20:48;2.63;;;2.27;;
11024;SDS011;22890;51.820;8.682;2023-08-06T00:23:15;5.03;;;2.60;;
11024;SDS011;22890;51.820;8.682;2023-08-06T00:25:42;4.87;;;2.60;;
11024;SDS011;22890;51.820;8.682;2023-08-06T00:28:09;2.80;;;2.47;;
11024;SDS011;22890;51.820;8.682;2023-08-06T00:30:36;5.20;;;2.83;;
11024;SDS011;22890;51.820;8.682;2023-08-06T00:33:03;4.70;;;3.03;;
11024;SDS011;22890;51.820;8.682;2023-08-06T00:35:31;3.30;;;2.67;;
11024;SDS011;22890;51.820;8.682;2023-08-06T00:37:57;3.77;;;2.70;;
11024;SDS011;22890;51.820;8.682;2023-08-06T00:40:24;2.80;;;2.43;;
11024;SDS011;22890;51.820;8.682;2023-08-06T00:42:51;3.30;;;2.60;;
11024;SDS011;22890;51.820;8.682;2023-08-06T00:45:17;5.27;;;2.70;;
11024;SDS011;22890;51.820;8.682;2023-08-06T00:47:44;4.40;;;2.47;;
11024;SDS011;22890;51.820;8.682;2023-08-06T00:50:12;3.90;;;2.50;;
11024;SDS011;22890;51.820;8.682;2023-08-06T00:52:39;3.17;;;2.33;;
11024;SDS011;22890;51.820;8.682;2023-08-06T00:55:06;2.97;;;2.77;;
11024;SDS011;22890;51.820;8.682;2023-08-06T00:57:33;3.90;;;3.00;;
11024;SDS011;22890;51.820;8.682;2023-08-06T01:00:00;5.20;;;2.90;;
11024;SDS011;22890;51.820;8.682;2023-08-06T01:02:30;4.07;;;2.50;;
11024;SDS011;22890;51.820;8.682;2023-08-06T01:04:57;2.60;;;2.40;;
11024;SDS011;22890;51.820;8.682;2023-08-06T01:07:37;4.93;;;3.00;;
11024;SDS011;22890;51.820;8.682;2023-08-06T01:10:37;3.10;;;2.80;;
11024;SDS011;22890;51.820;8.682;2023-08-06T01:15:59;2.77;;;2.53;;
11024;SDS011;22890;51.820;8.682;2023-08-06T01:18:27;2.60;;;2.40;;
11024;SDS011;22890;51.820;8.682;2023-08-06T01:20:54;8.03;;;2.57;;
11024;SDS011;22890;51.820;8.682;2023-08-06T01:23:21;4.77;;;2.53;;
11024;SDS011;22890;51.820;8.682;2023-08-06T01:29:08;4.00;;;2.90;;
11024;SDS011;22890;51.820;8.682;2023-08-06T01:31:57;4.07;;;3.20;;
11024;SDS011;22890;51.820;8.682;2023-08-06T01:34:25;4.37;;;2.97;;
11024;SDS011;22890;51.820;8.682;2023-08-06T01:36:57;6.57;;;2.90;;
11024;SDS011;22890;51.820;8.682;2023-08-06T01:39:25;3.80;;;2.60;;
11024;SDS011;22890;51.820;8.682;2023-08-06T01:41:52;3.53;;;2.80;;
11024;SDS011;22890;51.820;8.682;2023-08-06T01:44:19;2.80;;;2.60;;
11024;SDS011;22890;51.820;8.682;2023-08-06T01:46:46;4.33;;;2.63;;
11024;SDS011;22890;51.820;8.682;2023-08-06T01:49:13;6.27;;;3.00;;
11024;SDS011;22890;51.820;8.682;2023-08-06T01:51:39;3.00;;;2.70;;
11024;SDS011;22890;51.820;8.682;2023-08-06T01:54:06;4.27;;;2.50;;
11024;SDS011;22890;51.820;8.682;2023-08-06T01:56:33;2.40;;;2.20;;
11024;SDS011;22890;51.820;8.682;2023-08-06T01:58:59;4.23;;;2.73;;
11024;SDS011;22890;51.820;8.682;2023-08-06T02:01:30;6.17;;;3.20;;
11024;SDS011;22890;51.820;8.682;2023-08-06T02:03:57;4.20;;;2.33;;
11024;SDS011;22890;51.820;8.682;2023-08-06T02:06:24;5.83;;;2.63;;
11024;SDS011;22890;51.820;8.682;2023-08-06T02:08:50;6.37;;;2.50;;
11024;SDS011;22890;51.820;8.682;2023-08-06T02:11:17;3.70;;;2.57;;
11024;SDS011;22890;51.820;8.682;2023-08-06T02:13:45;3.83;;;2.33;;
11024;SDS011;22890;51.820;8.682;2023-08-06T02:16:17;6.50;;;2.47;;
11024;SDS011;22890;51.820;8.682;2023-08-06T02:18:43;5.73;;;2.73;;
11024;SDS011;22890;51.820;8.682;2023-08-06T02:21:10;2.60;;;2.40;;
11024;SDS011;22890;51.820;8.682;2023-08-06T02:23:37;5.73;;;2.80;;
11024;SDS011;22890;51.820;8.682;2023-08-06T02:26:04;7.77;;;2.60;;
11024;SDS011;22890;51.820;8.682;2023-08-06T02:28:31;6.70;;;2.90;;
11024;SDS011;22890;51.820;8.682;2023-08-06T02:30:58;4.70;;;2.60;;
11024;SDS011;22890;51.820;8.682;2023-08-06T02:33:25;6.50;;;3.20;;
11024;SDS011;22890;51.820;8.682;2023-08-06T02:36:01;5.90;;;2.70;;
11024;SDS011;22890;51.820;8.682;2023-08-06T02:38:30;5.50;;;2.70;;
11024;SDS011;22890;51.820;8.682;2023-08-06T02:40:57;5.20;;;2.43;;
11024;SDS011;22890;51.820;8.682;2023-08-06T02:43:24;4.70;;;2.87;;
11024;SDS011;22890;51.820;8.682;2023-08-06T02:45:51;5.37;;;2.60;;
11024;SDS011;22890;51.820;8.682;2023-08-06T02:48:18;11.70;;;2.83;;
11024;SDS011;22890;51.820;8.682;2023-08-06T02:50:45;6.00;;;3.00;;
11024;SDS011;22890;51.820;8.682;2023-08-06T02:53:12;3.50;;;2.93;;
11024;SDS011;22890;51.820;8.682;2023-08-06T02:55:44;3.30;;;2.80;;
11024;SDS011;22890;51.820;8.682;2023-08-06T02:58:16;9.33;;;2.90;;
11024;SDS011;22890;51.820;8.682;2023-08-06T03:01:03;4.63;;;2.77;;
11024;SDS011;22890;51.820;8.682;2023-08-06T03:03:38;3.97;;;2.73;;
11024;SDS011;22890;51.820;8.682;2023-08-06T03:06:06;5.43;;;2.90;;
11024;SDS011;22890;51.820;8.682;2023-08-06T03:08:44;5.57;;;2.83;;
11024;SDS011;22890;51.820;8.682;2023-08-06T03:11:11;4.53;;;3.00;;
11024;SDS011;22890;51.820;8.682;2023-08-06T03:13:39;7.87;;;3.10;;
11024;SDS011;22890;51.820;8.682;2023-08-06T03:16:06;5.00;;;2.57;;
11024;SDS011;22890;51.820;8.682;2023-08-06T03:18:33;5.97;;;2.47;;
11024;SDS011;22890;51.820;8.682;2023-08-06T03:21:03;6.90;;;2.87;;
11024;SDS011;22890;51.820;8.682;2023-08-06T03:23:30;3.33;;;2.83;;
11024;SDS011;22890;51.820;8.682;2023-08-06T03:26:03;4.77;;;3.07;;
11024;SDS011;22890;51.820;8.682;2023-08-06T03:28:31;3.87;;;2.70;;
11024;SDS011;22890;51.820;8.682;2023-08-06T03:30:59;8.17;;;2.77;;
11024;SDS011;22890;51.820;8.682;2023-08-06T03:33:36;5.07;;;2.50;;
11024;SDS011;22890;51.820;8.682;2023-08-06T03:36:07;4.50;;;3.03;;
11024;SDS011;22890;51.820;8.682;2023-08-06T03:38:34;3.20;;;2.87;;
11024;SDS011;22890;51.820;8.682;2023-08-06T03:41:04;8.37;;;2.93;;
11024;SDS011;22890;51.820;8.682;2023-08-06T03:43:31;5.40;;;2.80;;
11024;SDS011;22890;51.820;8.682;2023-08-06T03:45:59;3.00;;;2.70;;
11024;SDS011;22890;51.820;8.682;2023-08-06T03:48:26;3.60;;;2.57;;
11024;SDS011;22890;51.820;8.682;2023-08-06T03:50:53;3.80;;;2.50;;
11024;SDS011;22890;51.820;8.682;2023-08-06T03:53:20;3.77;;;2.77;;
11024;SDS011;22890;51.820;8.682;2023-08-06T03:55:48;4.70;;;2.70;;
11024;SDS011;22890;51.820;8.682;2023-08-06T03:58:15;5.73;;;3.00;;
11024;SDS011;22890;51.820;8.682;2023-08-06T04:00:42;7.07;;;2.93;;
11024;SDS011;22890;51.820;8.682;2023-08-06T04:03:09;10.77;;;3.30;;
11024;SDS011;22890;51.820;8.682;2023-08-06T04:05:36;6.30;;;2.80;;
11024;SDS011;22890;51.820;8.682;2023-08-06T04:08:02;3.30;;;2.90;;
11024;SDS011;22890;51.820;8.682;2023-08-06T04:10:29;5.53;;;2.93;;
11024;SDS011;22890;51.820;8.682;2023-08-06T04:12:56;3.53;;;3.23;;
11024;SDS011;22890;51.820;8.682;2023-08-06T04:15:23;4.63;;;3.30;;
11024;SDS011;22890;51.820;8.682;2023-08-06T04:17:50;3.80;;;3.10;;
11024;SDS011;22890;51.820;8.682;2023-08-06T04:20:17;4.43;;;3.13;;
11024;SDS011;22890;51.820;8.682;2023-08-06T04:22:43;3.60;;;3.30;;
11024;SDS011;22890;51.820;8.682;2023-08-06T04:25:10;5.70;;;3.10;;
11024;SDS011;22890;51.820;8.682;2023-08-06T04:27:37;5.63;;;3.77;;
11024;SDS011;22890;51.820;8.682;2023-08-06T04:30:08;3.70;;;3.20;;
11024;SDS011;22890;51.820;8.682;2023-08-06T04:32:36;6.93;;;2.77;;
11024;SDS011;22890;51.820;8.682;2023-08-06T04:35:03;6.33;;;3.83;;
11024;SDS011;22890;51.820;8.682;2023-08-06T04:37:30;3.50;;;3.20;;
11024;SDS011;22890;51.820;8.682;2023-08-06T04:39:57;3.73;;;3.43;;
11024;SDS011;22890;51.820;8.682;2023-08-06T04:42:24;5.90;;;4.30;;
11024;SDS011;22890;51.820;8.682;2023-08-06T04:44:51;4.13;;;3.37;;
11024;SDS011;22890;51.820;8.682;2023-08-06T04:47:18;4.40;;;4.00;;
11024;SDS011;22890;51.820;8.682;2023-08-06T04:49:45;4.70;;;3.77;;
11024;SDS011;22890;51.820;8.682;2023-08-06T04:52:12;5.73;;;4.00;;
11024;SDS011;22890;51.820;8.682;2023-08-06T04:54:38;4.20;;;3.50;;
11024;SDS011;22890;51.820;8.682;2023-08-06T04:57:05;5.10;;;3.73;;
11024;SDS011;22890;51.820;8.682;2023-08-06T04:59:32;3.83;;;3.50;;
11024;SDS011;22890;51.820;8.682;2023-08-06T05:01:58;4.27;;;3.43;;
11024;SDS011;22890;51.820;8.682;2023-08-06T05:04:25;4.93;;;4.33;;
11024;SDS011;22890;51.820;8.682;2023-08-06T05:06:52;6.23;;;3.77;;
11024;SDS011;22890;51.820;8.682;2023-08-06T05:09:19;4.43;;;3.60;;
11024;SDS011;22890;51.820;8.682;2023-08-06T05:11:46;4.70;;;3.40;;
11024;SDS011;22890;51.820;8.682;2023-08-06T05:14:13;3.97;;;3.57;;
11024;SDS011;22890;51.820;8.682;2023-08-06T05:16:40;4.10;;;3.70;;
11024;SDS011;22890;51.820;8.682;2023-08-06T05:19:07;3.97;;;3.67;;
11024;SDS011;22890;51.820;8.682;2023-08-06T05:21:33;4.23;;;3.80;;
11024;SDS011;22890;51.820;8.682;2023-08-06T05:24:00;7.27;;;3.67;;
11024;SDS011;22890;51.820;8.682;2023-08-06T05:26:27;5.87;;;3.83;;
11024;SDS011;22890;51.820;8.682;2023-08-06T05:28:54;4.77;;;4.03;;
11024;SDS011;22890;51.820;8.682;2023-08-06T05:31:21;5.90;;;3.80;;
11024;SDS011;22890;51.820;8.682;2023-08-06T05:33:47;5.80;;;4.30;;
11024;SDS011;22890;51.820;8.682;2023-08-06T05:36:14;5.57;;;3.87;;
11024;SDS011;22890;51.820;8.682;2023-08-06T05:38:41;4.60;;;4.20;;
11024;SDS011;22890;51.820;8.682;2023-08-06T05:41:07;4.93;;;4.43;;
11024;SDS011;22890;51.820;8.682;2023-08-06T05:43:34;6.53;;;4.20;;
11024;SDS011;22890;51.820;8.682;2023-08-06T05:46:01;6.10;;;4.67;;
11024;SDS011;22890;51.820;8.682;2023-08-06T05:48:28;7.27;;;4.33;;
11024;SDS011;22890;51.820;8.682;2023-08-06T05:50:55;4.67;;;4.27;;
11024;SDS011;22890;51.820;8.682;2023-08-06T05:53:21;6.60;;;4.63;;
11024;SDS011;22890;51.820;8.682;2023-08-06T05:55:48;5.27;;;4.17;;
11024;SDS011;22890;51.820;8.682;2023-08-06T05:58:15;5.27;;;4.77;;
11024;SDS011;22890;51.820;8.682;2023-08-06T06:00:42;5.53;;;4.60;;
11024;SDS011;22890;51.820;8.682;2023-08-06T06:03:09;5.87;;;4.47;;
11024;SDS011;22890;51.820;8.682;2023-08-06T06:05:39;7.40;;;4.47;;
11024;SDS011;22890;51.820;8.682;2023-08-06T06:08:06;9.97;;;4.27;;
11024;SDS011;22890;51.820;8.682;2023-08-06T06:10:32;4.70;;;4.07;;
11024;SDS011;22890;51.820;8.682;2023-08-06T06:12:59;5.40;;;4.30;;
11024;SDS011;22890;51.820;8.682;2023-08-06T06:15:26;5.67;;;4.03;;
11024;SDS011;22890;51.820;8.682;2023-08-06T06:17:53;8.90;;;4.63;;
11024;SDS011;22890;51.820;8.682;2023-08-06T06:20:19;4.97;;;4.47;;
11024;SDS011;22890;51.820;8.682;2023-08-06T06:22:46;5.13;;;4.07;;
11024;SDS011;22890;51.820;8.682;2023-08-06T06:25:13;8.43;;;4.63;;
11024;SDS011;22890;51.820;8.682;2023-08-06T06:27:39;6.27;;;4.10;;
11024;SDS011;22890;51.820;8.682;2023-08-06T06:30:06;4.77;;;4.37;;
11024;SDS011;22890;51.820;8.682;2023-08-06T06:32:34;5.30;;;4.80;;
11024;SDS011;22890;51.820;8.682;2023-08-06T06:35:01;4.33;;;3.93;;
11024;SDS011;22890;51.820;8.682;2023-08-06T06:37:27;4.60;;;4.20;;
11024;SDS011;22890;51.820;8.682;2023-08-06T06:39:54;5.10;;;4.47;;
11024;SDS011;22890;51.820;8.682;2023-08-06T06:42:21;7.43;;;4.57;;
11024;SDS011;22890;51.820;8.682;2023-08-06T06:44:51;7.17;;;4.50;;
11024;SDS011;22890;51.820;8.682;2023-08-06T06:47:17;5.73;;;3.93;;
11024;SDS011;22890;51.820;8.682;2023-08-06T06:49:44;4.63;;;4.10;;
11024;SDS011;22890;51.820;8.682;2023-08-06T06:52:11;5.07;;;4.30;;
11024;SDS011;22890;51.820;8.682;2023-08-06T06:54:38;5.57;;;3.70;;
11024;SDS011;22890;51.820;8.682;2023-08-06T06:57:05;4.87;;;4.37;;
11024;SDS011;22890;51.820;8.682;2023-08-06T06:59:32;6.50;;;4.30;;
11024;SDS011;22890;51.820;8.682;2023-08-06T07:01:58;4.57;;;4.00;;
11024;SDS011;22890;51.820;8.682;2023-08-06T07:04:25;5.50;;;4.70;;
11024;SDS011;22890;51.820;8.682;2023-08-06T07:06:52;7.70;;;4.20;;
11024;SDS011;22890;51.820;8.682;2023-08-06T07:09:19;5.37;;;4.87;;
11024;SDS011;22890;51.820;8.682;2023-08-06T07:11:46;5.30;;;4.63;;
11024;SDS011;22890;51.820;8.682;2023-08-06T07:14:12;8.70;;;4.77;;
11024;SDS011;22890;51.820;8.682;2023-08-06T07:16:40;6.20;;;4.23;;
11024;SDS011;22890;51.820;8.682;2023-08-06T07:19:07;4.67;;;4.00;;
11024;SDS011;22890;51.820;8.682;2023-08-06T07:21:34;4.77;;;4.30;;
11024;SDS011;22890;51.820;8.682;2023-08-06T07:24:00;4.10;;;3.70;;
11024;SDS011;22890;51.820;8.682;2023-08-06T07:26:27;5.37;;;4.27;;
11024;SDS011;22890;51.820;8.682;2023-08-06T07:28:54;5.23;;;4.73;;
11024;SDS011;22890;51.820;8.682;2023-08-06T07:31:21;6.27;;;4.97;;
11024;SDS011;22890;51.820;8.682;2023-08-06T07:33:47;4.90;;;4.47;;
11024;SDS011;22890;51.820;8.682;2023-08-06T07:36:14;6.60;;;5.00;;
11024;SDS011;22890;51.820;8.682;2023-08-06T07:38:41;5.73;;;4.23;;
11024;SDS011;22890;51.820;8.682;2023-08-06T07:41:08;4.13;;;3.83;;
11024;SDS011;22890;51.820;8.682;2023-08-06T07:43:35;5.00;;;4.50;;
11024;SDS011;22890;51.820;8.682;2023-08-06T07:46:02;5.10;;;3.73;;
11024;SDS011;22890;51.820;8.682;2023-08-06T07:48:29;3.57;;;3.27;;
11024;SDS011;22890;51.820;8.682;2023-08-06T07:50:56;3.70;;;3.30;;
11024;SDS011;22890;51.820;8.682;2023-08-06T07:53:24;3.40;;;3.10;;
11024;SDS011;22890;51.820;8.682;2023-08-06T07:55:55;5.13;;;3.20;;
11024;SDS011;22890;51.820;8.682;2023-08-06T07:58:23;3.43;;;2.80;;
11024;SDS011;22890;51.820;8.682;2023-08-06T08:00:50;3.37;;;2.40;;
11024;SDS011;22890;51.820;8.682;2023-08-06T08:03:18;2.77;;;2.57;;
11024;SDS011;22890;51.820;8.682;2023-08-06T08:05:46;5.13;;;2.47;;
11024;SDS011;22890;51.820;8.682;2023-08-06T08:08:13;2.57;;;2.37;;
11024;SDS011;22890;51.820;8.682;2023-08-06T08:10:40;3.87;;;2.53;;
11024;SDS011;22890;51.820;8.682;2023-08-06T08:13:08;3.07;;;2.20;;
11024;SDS011;22890;51.820;8.682;2023-08-06T08:15:35;2.43;;;2.10;;
11024;SDS011;22890;51.820;8.682;2023-08-06T08:18:01;2.13;;;1.90;;
11024;SDS011;22890;51.820;8.682;2023-08-06T08:20:28;4.50;;;1.80;;
11024;SDS011;22890;51.820;8.682;2023-08-06T08:23:01;4.63;;;1.83;;
11024;SDS011;22890;51.820;8.682;2023-08-06T08:25:28;2.17;;;1.90;;
11024;SDS011;22890;51.820;8.682;2023-08-06T08:27:57;3.30;;;2.60;;
11024;SDS011;22890;51.820;8.682;2023-08-06T08:30:24;4.27;;;2.40;;
11024;SDS011;22890;51.820;8.682;2023-08-06T08:32:51;3.47;;;2.13;;
11024;SDS011;22890;51.820;8.682;2023-08-06T08:35:19;2.23;;;1.90;;
11024;SDS011;22890;51.820;8.682;2023-08-06T08:37:46;2.90;;;1.83;;
11024;SDS011;22890;51.820;8.682;2023-08-06T08:40:13;2.97;;;1.97;;
11024;SDS011;22890;51.820;8.682;2023-08-06T08:42:42;1.57;;;1.33;;
11024;SDS011;22890;51.820;8.682;2023-08-06T08:45:12;3.30;;;1.70;;
11024;SDS011;22890;51.820;8.682;2023-08-06T08:47:43;2.17;;;1.97;;
11024;SDS011;22890;51.820;8.682;2023-08-06T08:50:10;2.10;;;2.00;;
11024;SDS011;22890;51.820;8.682;2023-08-06T08:52:38;2.20;;;2.00;;
11024;SDS011;22890;51.820;8.682;2023-08-06T08:55:06;3.30;;;2.00;;
11024;SDS011;22890;51.820;8.682;2023-08-06T08:57:34;3.43;;;1.80;;
11024;SDS011;22890;51.820;8.682;2023-08-06T09:00:01;1.70;;;1.60;;
11024;SDS011;22890;51.820;8.682;2023-08-06T09:02:28;3.20;;;1.73;;
11024;SDS011;22890;51.820;8.682;2023-08-06T09:05:01;2.00;;;1.80;;
11024;SDS011;22890;51.820;8.682;2023-08-06T09:07:34;2.20;;;2.00;;
11024;SDS011;22890;51.820;8.682;2023-08-06T09:10:05;3.10;;;1.90;;
11024;SDS011;22890;51.820;8.682;2023-08-06T09:12:36;1.70;;;1.60;;
11024;SDS011;22890;51.820;8.682;2023-08-06T09:15:03;2.63;;;1.90;;
11024;SDS011;22890;51.820;8.682;2023-08-06T09:17:31;1.70;;;1.40;;
11024;SDS011;22890;51.820;8.682;2023-08-06T09:19:57;3.13;;;2.00;;
11024;SDS011;22890;51.820;8.682;2023-08-06T09:22:25;6.10;;;2.00;;
11024;SDS011;22890;51.820;8.682;2023-08-06T09:25:01;2.73;;;2.03;;
11024;SDS011;22890;51.820;8.682;2023-08-06T09:27:29;1.80;;;1.70;;
11024;SDS011;22890;51.820;8.682;2023-08-06T09:29:56;2.27;;;1.70;;
11024;SDS011;22890;51.820;8.682;2023-08-06T09:32:23;3.23;;;1.63;;
11024;SDS011;22890;51.820;8.682;2023-08-06T09:34:54;1.83;;;1.50;;
11024;SDS011;22890;51.820;8.682;2023-08-06T09:37:22;3.77;;;2.13;;
11024;SDS011;22890;51.820;8.682;2023-08-06T09:39:49;2.00;;;1.90;;
11024;SDS011;22890;51.820;8.682;2023-08-06T09:42:17;2.13;;;1.50;;
11024;SDS011;22890;51.820;8.682;2023-08-06T09:44:44;2.00;;;1.80;;
11024;SDS011;22890;51.820;8.682;2023-08-06T09:47:11;2.70;;;1.83;;
11024;SDS011;22890;51.820;8.682;2023-08-06T09:49:41;4.67;;;1.73;;
11024;SDS011;22890;51.820;8.682;2023-08-06T09:52:10;1.57;;;1.20;;
11024;SDS011;22890;51.820;8.682;2023-08-06T09:54:43;1.50;;;1.30;;
11024;SDS011;22890;51.820;8.682;2023-08-06T09:57:10;2.53;;;1.57;;
11024;SDS011;22890;51.820;8.682;2023-08-06T09:59:38;1.60;;;1.40;;
11024;SDS011;22890;51.820;8.682;2023-08-06T10:02:13;2.33;;;1.60;;
11024;SDS011;22890;51.820;8.682;2023-08-06T10:04:42;2.57;;;1.90;;
11024;SDS011;22890;51.820;8.682;2023-08-06T10:07:20;2.70;;;1.30;;
11024;SDS011;22890;51.820;8.682;2023-08-06T10:09:48;1.80;;;1.40;;
11024;SDS011;22890;51.820;8.682;2023-08-06T10:12:15;2.97;;;1.53;;
11024;SDS011;22890;51.820;8.682;2023-08-06T10:14:45;2.47;;;1.50;;
11024;SDS011;22890;51.820;8.682;2023-08-06T10:17:13;2.40;;;1.57;;
11024;SDS011;22890;51.820;8.682;2023-08-06T10:19:40;3.37;;;1.30;;
11024;SDS011;22890;51.820;8.682;2023-08-06T10:22:14;2.77;;;1.43;;
11024;SDS011;22890;51.820;8.682;2023-08-06T10:24:46;1.40;;;1.30;;
11024;SDS011;22890;51.820;8.682;2023-08-06T10:27:33;1.40;;;1.27;;
11024;SDS011;22890;51.820;8.682;2023-08-06T10:30:31;2.27;;;0.97;;
11024;SDS011;22890;51.820;8.682;2023-08-06T10:33:00;1.67;;;1.20;;
11024;SDS011;22890;51.820;8.682;2023-08-06T10:35:36;2.20;;;1.10;;
11024;SDS011;22890;51.820;8.682;2023-08-06T10:38:17;1.60;;;1.10;;
11024;SDS011;22890;51.820;8.682;2023-08-06T10:45:57;1.23;;;1.10;;
11024;SDS011;22890;51.820;8.682;2023-08-06T10:48:29;1.40;;;1.30;;
11024;SDS011;22890;51.820;8.682;2023-08-06T10:50:59;0.90;;;0.90;;
11024;SDS011;22890;51.820;8.682;2023-08-06T10:53:27;1.27;;;1.10;;
11024;SDS011;22890;51.820;8.682;2023-08-06T10:55:57;2.83;;;1.13;;
11024;SDS011;22890;51.820;8.682;2023-08-06T10:58:24;1.50;;;1.37;;
11024;SDS011;22890;51.820;8.682;2023-08-06T11:00:51;5.50;;;1.07;;
11024;SDS011;22890;51.820;8.682;2023-08-06T11:03:18;1.07;;;1.00;;
11024;SDS011;22890;51.820;8.682;2023-08-06T11:05:49;1.70;;;1.10;;
11024;SDS011;22890;51.820;8.682;2023-08-06T11:08:26;2.53;;;1.10;;
11024;SDS011;22890;51.820;8.682;2023-08-06T11:10:53;3.43;;;1.60;;
11024;SDS011;22890;51.820;8.682;2023-08-06T11:13:29;1.47;;;1.37;;
11024;SDS011;22890;51.820;8.682;2023-08-06T11:15:57;1.93;;;1.30;;
11024;SDS011;22890;51.820;8.682;2023-08-06T11:18:24;1.87;;;1.70;;
11024;SDS011;22890;51.820;8.682;2023-08-06T11:20:51;1.50;;;1.40;;
11024;SDS011;22890;51.820;8.682;2023-08-06T11:23:18;1.80;;;1.43;;
11024;SDS011;22890;51.820;8.682;2023-08-06T11:25:45;2.57;;;1.80;;
11024;SDS011;22890;51.820;8.682;2023-08-06T11:28:12;1.37;;;1.10;;
11024;SDS011;22890;51.820;8.682;2023-08-06T11:30:39;5.03;;;1.60;;
11024;SDS011;22890;51.820;8.682;2023-08-06T11:33:06;2.50;;;1.27;;
11024;SDS011;22890;51.820;8.682;2023-08-06T11:35:35;1.50;;;1.40;;
11024;SDS011;22890;51.820;8.682;2023-08-06T11:38:03;1.60;;;1.50;;
11024;SDS011;22890;51.820;8.682;2023-08-06T11:40:31;1.60;;;1.33;;
11024;SDS011;22890;51.820;8.682;2023-08-06T11:42:58;1.87;;;1.40;;
11024;SDS011;22890;51.820;8.682;2023-08-06T11:45:25;1.40;;;1.30;;
11024;SDS011;22890;51.820;8.682;2023-08-06T11:47:52;2.40;;;1.43;;
11024;SDS011;22890;51.820;8.682;2023-08-06T11:50:25;4.43;;;1.63;;
11024;SDS011;22890;51.820;8.682;2023-08-06T11:52:56;1.50;;;1.40;;
11024;SDS011;22890;51.820;8.682;2023-08-06T11:55:24;1.60;;;1.20;;
11024;SDS011;22890;51.820;8.682;2023-08-06T11:57:54;1.93;;;1.40;;
11024;SDS011;22890;51.820;8.682;2023-08-06T12:00:22;1.37;;;1.27;;
11024;SDS011;22890;51.820;8.682;2023-08-06T12:02:50;3.03;;;1.50;;
11024;SDS011;22890;51.820;8.682;2023-08-06T12:05:19;3.23;;;1.40;;
11024;SDS011;22890;51.820;8.682;2023-08-06T12:07:48;1.67;;;1.30;;
11024;SDS011;22890;51.820;8.682;2023-08-06T12:10:19;1.10;;;1.10;;
11024;SDS011;22890;51.820;8.682;2023-08-06T12:12:47;2.17;;;1.70;;
11024;SDS011;22890;51.820;8.682;2023-08-06T12:15:14;2.73;;;1.43;;
11024;SDS011;22890;51.820;8.682;2023-08-06T12:17:41;2.00;;;1.50;;
11024;SDS011;22890;51.820;8.682;2023-08-06T12:20:09;1.73;;;1.43;;
11024;SDS011;22890;51.820;8.682;2023-08-06T12:22:36;1.20;;;1.10;;
11024;SDS011;22890;51.820;8.682;2023-08-06T12:25:06;1.30;;;1.20;;
11024;SDS011;22890;51.820;8.682;2023-08-06T12:27:39;1.20;;;1.10;;
11024;SDS011;22890;51.820;8.682;2023-08-06T12:30:08;1.20;;;1.10;;
11024;SDS011;22890;51.820;8.682;2023-08-06T12:32:35;1.20;;;1.10;;
11024;SDS011;22890;51.820;8.682;2023-08-06T12:35:03;1.40;;;1.30;;
11024;SDS011;22890;51.820;8.682;2023-08-06T12:37:31;1.40;;;1.20;;
11024;SDS011;22890;51.820;8.682;2023-08-06T12:39:57;2.33;;;1.20;;
11024;SDS011;22890;51.820;8.682;2023-08-06T12:42:24;1.40;;;1.30;;
11024;SDS011;22890;51.820;8.682;2023-08-06T12:44:51;1.10;;;1.03;;
11024;SDS011;22890;51.820;8.682;2023-08-06T12:47:18;1.20;;;1.10;;
11024;SDS011;22890;51.820;8.682;2023-08-06T12:49:46;1.30;;;1.10;;
11024;SDS011;22890;51.820;8.682;2023-08-06T12:52:13;1.33;;;1.23;;
11024;SDS011;22890;51.820;8.682;2023-08-06T12:54:41;1.40;;;1.23;;
11024;SDS011;22890;51.820;8.682;2023-08-06T12:57:08;1.20;;;0.90;;
11024;SDS011;22890;51.820;8.682;2023-08-06T12:59:35;1.20;;;1.10;;
11024;SDS011;22890;51.820;8.682;2023-08-06T13:02:03;2.13;;;1.47;;
11024;SDS011;22890;51.820;8.682;2023-08-06T13:04:30;1.63;;;1.50;;
11024;SDS011;22890;51.820;8.682;2023-08-06T13:06:58;1.87;;;1.67;;
11024;SDS011;22890;51.820;8.682;2023-08-06T13:09:24;2.63;;;1.30;;
11024;SDS011;22890;51.820;8.682;2023-08-06T13:11:54;1.13;;;1.03;;
11024;SDS011;22890;51.820;8.682;2023-08-06T13:14:21;1.07;;;0.97;;
11024;SDS011;22890;51.820;8.682;2023-08-06T13:16:48;2.50;;;1.40;;
11024;SDS011;22890;51.820;8.682;2023-08-06T13:19:15;2.47;;;1.80;;
11024;SDS011;22890;51.820;8.682;2023-08-06T13:24:16;1.27;;;1.17;;
11024;SDS011;22890;51.820;8.682;2023-08-06T13:26:42;1.70;;;1.37;;
11024;SDS011;22890;51.820;8.682;2023-08-06T13:29:09;2.47;;;1.70;;
11024;SDS011;22890;51.820;8.682;2023-08-06T13:31:36;2.70;;;1.20;;
11024;SDS011;22890;51.820;8.682;2023-08-06T13:34:03;1.20;;;1.10;;
11024;SDS011;22890;51.820;8.682;2023-08-06T13:36:30;2.23;;;1.37;;
11024;SDS011;22890;51.820;8.682;2023-08-06T13:38:57;1.90;;;1.63;;
11024;SDS011;22890;51.820;8.682;2023-08-06T13:41:24;1.10;;;1.00;;
11024;SDS011;22890;51.820;8.682;2023-08-06T13:43:51;6.03;;;1.53;;
11024;SDS011;22890;51.820;8.682;2023-08-06T13:46:18;9.57;;;1.80;;
11024;SDS011;22890;51.820;8.682;2023-08-06T13:48:47;2.67;;;0.80;;
11024;SDS011;22890;51.820;8.682;2023-08-06T13:51:17;1.37;;;0.80;;
11024;SDS011;22890;51.820;8.682;2023-08-06T13:53:45;3.90;;;1.13;;
11024;SDS011;22890;51.820;8.682;2023-08-06T13:56:12;3.17;;;1.37;;
11024;SDS011;22890;51.820;8.682;2023-08-06T13:58:41;2.83;;;1.80;;
11024;SDS011;22890;51.820;8.682;2023-08-06T14:01:09;3.10;;;1.97;;
11024;SDS011;22890;51.820;8.682;2023-08-06T14:03:37;4.80;;;2.47;;
11024;SDS011;22890;51.820;8.682;2023-08-06T14:06:04;6.87;;;2.90;;
11024;SDS011;22890;51.820;8.682;2023-08-06T14:08:31;5.57;;;2.80;;
11024;SDS011;22890;51.820;8.682;2023-08-06T14:10:57;3.10;;;2.47;;
11024;SDS011;22890;51.820;8.682;2023-08-06T14:13:25;5.00;;;2.80;;
11024;SDS011;22890;51.820;8.682;2023-08-06T14:15:51;8.00;;;3.43;;
11024;SDS011;22890;51.820;8.682;2023-08-06T14:18:18;3.60;;;2.67;;
11024;SDS011;22890;51.820;8.682;2023-08-06T14:20:45;3.13;;;2.83;;
11024;SDS011;22890;51.820;8.682;2023-08-06T14:23:12;3.17;;;2.60;;
11024;SDS011;22890;51.820;8.682;2023-08-06T14:25:38;3.03;;;2.40;;
11024;SDS011;22890;51.820;8.682;2023-08-06T14:28:05;3.30;;;2.27;;
11024;SDS011;22890;51.820;8.682;2023-08-06T14:30:33;3.57;;;2.53;;
11024;SDS011;22890;51.820;8.682;2023-08-06T14:33:01;4.17;;;3.10;;
11024;SDS011;22890;51.820;8.682;2023-08-06T14:35:49;3.77;;;3.37;;
11024;SDS011;22890;51.820;8.682;2023-08-06T14:38:16;8.30;;;3.47;;
11024;SDS011;22890;51.820;8.682;2023-08-06T14:40:43;3.50;;;3.20;;
11024;SDS011;22890;51.820;8.682;2023-08-06T14:43:10;4.63;;;3.20;;
11024;SDS011;22890;51.820;8.682;2023-08-06T14:45:40;3.93;;;3.63;;
11024;SDS011;22890;51.820;8.682;2023-08-06T14:48:07;5.97;;;3.37;;
11024;SDS011;22890;51.820;8.682;2023-08-06T14:50:33;4.87;;;3.13;;
11024;SDS011;22890;51.820;8.682;2023-08-06T14:53:00;4.47;;;3.40;;
11024;SDS011;22890;51.820;8.682;2023-08-06T14:55:30;4.67;;;3.40;;
11024;SDS011;22890;51.820;8.682;2023-08-06T14:57:58;4.57;;;3.63;;
11024;SDS011;22890;51.820;8.682;2023-08-06T15:00:25;4.13;;;3.47;;
11024;SDS011;22890;51.820;8.682;2023-08-06T15:02:52;4.40;;;3.80;;
11024;SDS011;22890;51.820;8.682;2023-08-06T15:05:19;7.23;;;4.30;;
11024;SDS011;22890;51.820;8.682;2023-08-06T15:07:46;4.13;;;3.53;;